sensor_id;sensor_type;location;lat;lon;timestamp;P1;durP1;ratioP1;P2;durP2;ratioP2
52776;SDS011;38656;54.260;20.822;2022-08-03T00:00:00;16.20;;;5.82;;
52776;SDS011;38656;54.260;20.822;2022-08-03T00:02:26;8.30;;;5.55;;
52776;SDS011;38656;54.260;20.822;2022-08-03T00:04:52;10.05;;;6.40;;
52776;SDS011;38656;54.260;20.822;2022-08-03T00:07:18;10.45;;;5.88;;
52776;SDS011;38656;54.260;20.822;2022-08-03T00:09:44;12.00;;;5.50;;
52776;SDS011;38656;54.260;20.822;2022-08-03T00:12:10;8.85;;;6.13;;
52776;SDS011;38656;54.260;20.822;2022-08-03T00:14:36;10.75;;;5.43;;
52776;SDS011;38656;54.260;20.822;2022-08-03T00:17:02;9.18;;;5.95;;
52776;SDS011;38656;54.260;20.822;2022-08-03T00:19:28;9.52;;;5.43;;
52776;SDS011;38656;54.260;20.822;2022-08-03T00:21:54;13.95;;;6.15;;
52776;SDS011;38656;54.260;20.822;2022-08-03T00:24:21;13.15;;;4.80;;
52776;SDS011;38656;54.260;20.822;2022-08-03T00:26:47;12.63;;;5.85;;
52776;SDS011;38656;54.260;20.822;2022-08-03T00:29:13;9.10;;;5.55;;
52776;SDS011;38656;54.260;20.822;2022-08-03T00:31:39;9.02;;;5.68;;
52776;SDS011;38656;54.260;20.822;2022-08-03T00:34:05;8.25;;;5.03;;
52776;SDS011;38656;54.260;20.822;2022-08-03T00:36:31;15.07;;;4.97;;
52776;SDS011;38656;54.260;20.822;2022-08-03T00:38:57;13.43;;;4.75;;
52776;SDS011;38656;54.260;20.822;2022-08-03T00:41:23;8.15;;;4.60;;
52776;SDS011;38656;54.260;20.822;2022-08-03T00:43:49;7.25;;;4.03;;
52776;SDS011;38656;54.260;20.822;2022-08-03T00:46:15;7.75;;;5.10;;
52776;SDS011;38656;54.260;20.822;2022-08-03T00:48:41;9.80;;;4.75;;
52776;SDS011;38656;54.260;20.822;2022-08-03T00:51:08;7.80;;;4.80;;
52776;SDS011;38656;54.260;20.822;2022-08-03T00:53:34;11.65;;;4.38;;
52776;SDS011;38656;54.260;20.822;2022-08-03T00:56:00;5.57;;;3.88;;
52776;SDS011;38656;54.260;20.822;2022-08-03T00:58:26;7.28;;;4.25;;
52776;SDS011;38656;54.260;20.822;2022-08-03T01:00:52;9.38;;;4.07;;
52776;SDS011;38656;54.260;20.822;2022-08-03T01:03:18;5.90;;;4.38;;
52776;SDS011;38656;54.260;20.822;2022-08-03T01:13:43;9.35;;;4.75;;
52776;SDS011;38656;54.260;20.822;2022-08-03T01:16:46;7.28;;;5.00;;
52776;SDS011;38656;54.260;20.822;2022-08-03T01:24:21;6.90;;;4.40;;
52776;SDS011;38656;54.260;20.822;2022-08-03T01:27:04;8.88;;;4.38;;
52776;SDS011;38656;54.260;20.822;2022-08-03T01:32:01;6.80;;;4.18;;
52776;SDS011;38656;54.260;20.822;2022-08-03T01:34:30;6.32;;;3.30;;
52776;SDS011;38656;54.260;20.822;2022-08-03T01:36:56;6.65;;;3.83;;
52776;SDS011;38656;54.260;20.822;2022-08-03T01:39:24;12.35;;;3.83;;
52776;SDS011;38656;54.260;20.822;2022-08-03T01:41:58;7.18;;;3.60;;
52776;SDS011;38656;54.260;20.822;2022-08-03T01:44:30;6.97;;;3.97;;
52776;SDS011;38656;54.260;20.822;2022-08-03T01:46:58;8.90;;;3.85;;
52776;SDS011;38656;54.260;20.822;2022-08-03T01:49:26;7.53;;;4.70;;
52776;SDS011;38656;54.260;20.822;2022-08-03T01:51:53;8.48;;;3.72;;
52776;SDS011;38656;54.260;20.822;2022-08-03T01:54:22;6.55;;;3.38;;
52776;SDS011;38656;54.260;20.822;2022-08-03T01:56:50;9.68;;;4.38;;
52776;SDS011;38656;54.260;20.822;2022-08-03T01:59:17;7.47;;;4.38;;
52776;SDS011;38656;54.260;20.822;2022-08-03T02:01:43;8.25;;;4.25;;
52776;SDS011;38656;54.260;20.822;2022-08-03T02:04:10;6.13;;;4.30;;
52776;SDS011;38656;54.260;20.822;2022-08-03T02:06:37;9.23;;;4.53;;
52776;SDS011;38656;54.260;20.822;2022-08-03T02:09:04;7.28;;;4.45;;
52776;SDS011;38656;54.260;20.822;2022-08-03T02:11:30;8.27;;;4.80;;
52776;SDS011;38656;54.260;20.822;2022-08-03T02:13:57;7.85;;;4.97;;
52776;SDS011;38656;54.260;20.822;2022-08-03T02:16:25;15.05;;;5.05;;
52776;SDS011;38656;54.260;20.822;2022-08-03T02:18:51;8.02;;;4.60;;
52776;SDS011;38656;54.260;20.822;2022-08-03T02:21:17;8.93;;;5.00;;
52776;SDS011;38656;54.260;20.822;2022-08-03T02:23:44;8.23;;;4.45;;
52776;SDS011;38656;54.260;20.822;2022-08-03T02:26:10;7.82;;;4.63;;
52776;SDS011;38656;54.260;20.822;2022-08-03T02:28:40;8.90;;;5.50;;
52776;SDS011;38656;54.260;20.822;2022-08-03T02:31:10;11.90;;;5.45;;
52776;SDS011;38656;54.260;20.822;2022-08-03T02:33:38;8.63;;;5.60;;
52776;SDS011;38656;54.260;20.822;2022-08-03T02:36:06;8.38;;;5.03;;
52776;SDS011;38656;54.260;20.822;2022-08-03T02:38:33;10.93;;;5.82;;
52776;SDS011;38656;54.260;20.822;2022-08-03T02:41:00;9.90;;;5.50;;
52776;SDS011;38656;54.260;20.822;2022-08-03T02:43:29;8.27;;;5.03;;
52776;SDS011;38656;54.260;20.822;2022-08-03T02:45:55;11.98;;;4.88;;
52776;SDS011;38656;54.260;20.822;2022-08-03T02:48:22;11.82;;;5.65;;
52776;SDS011;38656;54.260;20.822;2022-08-03T02:50:50;12.88;;;5.10;;
52776;SDS011;38656;54.260;20.822;2022-08-03T02:53:17;5.65;;;4.55;;
52776;SDS011;38656;54.260;20.822;2022-08-03T02:55:45;11.60;;;5.38;;
52776;SDS011;38656;54.260;20.822;2022-08-03T02:58:12;8.18;;;4.15;;
52776;SDS011;38656;54.260;20.822;2022-08-03T03:00:39;7.50;;;4.50;;
52776;SDS011;38656;54.260;20.822;2022-08-03T03:03:06;7.22;;;5.03;;
52776;SDS011;38656;54.260;20.822;2022-08-03T03:05:32;8.00;;;4.38;;
52776;SDS011;38656;54.260;20.822;2022-08-03T03:07:59;6.82;;;3.97;;
52776;SDS011;38656;54.260;20.822;2022-08-03T03:10:25;7.60;;;4.55;;
52776;SDS011;38656;54.260;20.822;2022-08-03T03:12:55;7.60;;;4.95;;
52776;SDS011;38656;54.260;20.822;2022-08-03T03:15:22;6.22;;;3.47;;
52776;SDS011;38656;54.260;20.822;2022-08-03T03:17:48;5.05;;;3.40;;
52776;SDS011;38656;54.260;20.822;2022-08-03T03:20:14;11.32;;;4.75;;
52776;SDS011;38656;54.260;20.822;2022-08-03T03:22:41;8.48;;;4.25;;
52776;SDS011;38656;54.260;20.822;2022-08-03T03:25:08;9.18;;;4.85;;
52776;SDS011;38656;54.260;20.822;2022-08-03T03:27:34;10.05;;;4.93;;
52776;SDS011;38656;54.260;20.822;2022-08-03T03:30:02;6.53;;;3.92;;
52776;SDS011;38656;54.260;20.822;2022-08-03T03:32:28;8.02;;;4.47;;
52776;SDS011;38656;54.260;20.822;2022-08-03T03:34:55;7.57;;;3.90;;
52776;SDS011;38656;54.260;20.822;2022-08-03T03:37:23;8.25;;;4.07;;
52776;SDS011;38656;54.260;20.822;2022-08-03T03:39:49;4.85;;;3.40;;
52776;SDS011;38656;54.260;20.822;2022-08-03T03:42:15;9.20;;;3.55;;
52776;SDS011;38656;54.260;20.822;2022-08-03T03:44:41;6.10;;;3.25;;
52776;SDS011;38656;54.260;20.822;2022-08-03T03:47:07;4.70;;;3.22;;
52776;SDS011;38656;54.260;20.822;2022-08-03T03:49:33;7.38;;;3.85;;
52776;SDS011;38656;54.260;20.822;2022-08-03T03:51:59;9.85;;;3.50;;
52776;SDS011;38656;54.260;20.822;2022-08-03T03:54:25;8.98;;;4.20;;
52776;SDS011;38656;54.260;20.822;2022-08-03T03:56:51;8.70;;;4.78;;
52776;SDS011;38656;54.260;20.822;2022-08-03T03:59:17;11.07;;;4.13;;
52776;SDS011;38656;54.260;20.822;2022-08-03T04:01:43;9.52;;;4.32;;
52776;SDS011;38656;54.260;20.822;2022-08-03T04:04:09;20.08;;;4.82;;
52776;SDS011;38656;54.260;20.822;2022-08-03T04:06:54;7.63;;;4.25;;
52776;SDS011;38656;54.260;20.822;2022-08-03T04:12:23;8.27;;;3.65;;
52776;SDS011;38656;54.260;20.822;2022-08-03T04:14:51;7.88;;;4.35;;
52776;SDS011;38656;54.260;20.822;2022-08-03T04:17:19;6.10;;;3.67;;
52776;SDS011;38656;54.260;20.822;2022-08-03T04:19:48;8.60;;;4.25;;
52776;SDS011;38656;54.260;20.822;2022-08-03T04:22:16;9.50;;;3.70;;
52776;SDS011;38656;54.260;20.822;2022-08-03T04:24:47;8.70;;;3.90;;
52776;SDS011;38656;54.260;20.822;2022-08-03T04:27:15;6.05;;;3.83;;
52776;SDS011;38656;54.260;20.822;2022-08-03T04:29:44;10.98;;;3.78;;
52776;SDS011;38656;54.260;20.822;2022-08-03T04:32:11;9.35;;;4.03;;
52776;SDS011;38656;54.260;20.822;2022-08-03T04:34:37;5.45;;;3.55;;
52776;SDS011;38656;54.260;20.822;2022-08-03T04:37:04;9.68;;;4.07;;
52776;SDS011;38656;54.260;20.822;2022-08-03T04:39:34;5.82;;;3.05;;
52776;SDS011;38656;54.260;20.822;2022-08-03T04:42:03;8.20;;;3.17;;
52776;SDS011;38656;54.260;20.822;2022-08-03T04:44:29;6.35;;;3.08;;
52776;SDS011;38656;54.260;20.822;2022-08-03T04:46:55;5.60;;;3.17;;
52776;SDS011;38656;54.260;20.822;2022-08-03T04:49:22;9.18;;;3.95;;
52776;SDS011;38656;54.260;20.822;2022-08-03T04:51:48;12.88;;;4.18;;
52776;SDS011;38656;54.260;20.822;2022-08-03T04:54:15;8.77;;;3.22;;
52776;SDS011;38656;54.260;20.822;2022-08-03T04:56:42;6.47;;;3.35;;
52776;SDS011;38656;54.260;20.822;2022-08-03T04:59:08;8.23;;;3.53;;
52776;SDS011;38656;54.260;20.822;2022-08-03T05:01:34;13.52;;;4.05;;
52776;SDS011;38656;54.260;20.822;2022-08-03T05:04:00;15.15;;;3.38;;
52776;SDS011;38656;54.260;20.822;2022-08-03T05:06:26;15.25;;;3.45;;
52776;SDS011;38656;54.260;20.822;2022-08-03T05:08:52;9.10;;;3.22;;
52776;SDS011;38656;54.260;20.822;2022-08-03T05:11:19;8.63;;;3.47;;
52776;SDS011;38656;54.260;20.822;2022-08-03T05:13:45;8.20;;;3.05;;
52776;SDS011;38656;54.260;20.822;2022-08-03T05:16:11;9.02;;;4.82;;
52776;SDS011;38656;54.260;20.822;2022-08-03T05:18:38;8.52;;;4.38;;
52776;SDS011;38656;54.260;20.822;2022-08-03T05:21:04;13.82;;;4.75;;
52776;SDS011;38656;54.260;20.822;2022-08-03T05:23:30;13.23;;;3.08;;
52776;SDS011;38656;54.260;20.822;2022-08-03T05:25:56;13.10;;;3.80;;
52776;SDS011;38656;54.260;20.822;2022-08-03T05:28:22;9.15;;;3.00;;
52776;SDS011;38656;54.260;20.822;2022-08-03T05:30:48;5.40;;;2.72;;
52776;SDS011;38656;54.260;20.822;2022-08-03T05:33:14;10.25;;;2.58;;
52776;SDS011;38656;54.260;20.822;2022-08-03T05:35:40;11.68;;;3.88;;
52776;SDS011;38656;54.260;20.822;2022-08-03T05:38:06;6.28;;;3.10;;
52776;SDS011;38656;54.260;20.822;2022-08-03T05:40:32;8.65;;;3.28;;
52776;SDS011;38656;54.260;20.822;2022-08-03T05:42:59;9.32;;;3.47;;
52776;SDS011;38656;54.260;20.822;2022-08-03T05:45:25;12.63;;;3.78;;
52776;SDS011;38656;54.260;20.822;2022-08-03T05:47:51;8.73;;;3.08;;
52776;SDS011;38656;54.260;20.822;2022-08-03T05:50:18;11.80;;;3.42;;
52776;SDS011;38656;54.260;20.822;2022-08-03T05:52:44;14.27;;;4.22;;
52776;SDS011;38656;54.260;20.822;2022-08-03T05:55:10;9.90;;;3.28;;
52776;SDS011;38656;54.260;20.822;2022-08-03T05:57:37;36.05;;;4.22;;
52776;SDS011;38656;54.260;20.822;2022-08-03T06:00:04;11.88;;;3.50;;
52776;SDS011;38656;54.260;20.822;2022-08-03T06:02:31;5.00;;;3.20;;
52776;SDS011;38656;54.260;20.822;2022-08-03T06:04:57;9.27;;;2.90;;
52776;SDS011;38656;54.260;20.822;2022-08-03T06:07:23;10.93;;;3.50;;
52776;SDS011;38656;54.260;20.822;2022-08-03T06:09:49;8.48;;;2.60;;
52776;SDS011;38656;54.260;20.822;2022-08-03T06:12:16;5.40;;;3.03;;
52776;SDS011;38656;54.260;20.822;2022-08-03T06:14:42;10.40;;;2.70;;
52776;SDS011;38656;54.260;20.822;2022-08-03T06:17:08;6.22;;;3.00;;
52776;SDS011;38656;54.260;20.822;2022-08-03T06:19:34;10.70;;;3.17;;
52776;SDS011;38656;54.260;20.822;2022-08-03T06:22:00;8.75;;;2.90;;
52776;SDS011;38656;54.260;20.822;2022-08-03T06:24:26;5.90;;;2.63;;
52776;SDS011;38656;54.260;20.822;2022-08-03T06:26:52;5.68;;;2.80;;
52776;SDS011;38656;54.260;20.822;2022-08-03T06:29:18;9.45;;;3.50;;
52776;SDS011;38656;54.260;20.822;2022-08-03T06:31:45;4.38;;;2.80;;
52776;SDS011;38656;54.260;20.822;2022-08-03T06:34:11;6.47;;;2.65;;
52776;SDS011;38656;54.260;20.822;2022-08-03T06:36:37;8.18;;;3.20;;
52776;SDS011;38656;54.260;20.822;2022-08-03T06:39:03;5.20;;;3.30;;
52776;SDS011;38656;54.260;20.822;2022-08-03T06:41:29;10.63;;;3.30;;
52776;SDS011;38656;54.260;20.822;2022-08-03T06:43:56;7.43;;;3.53;;
52776;SDS011;38656;54.260;20.822;2022-08-03T06:46:22;13.38;;;3.08;;
52776;SDS011;38656;54.260;20.822;2022-08-03T06:48:48;19.17;;;3.45;;
52776;SDS011;38656;54.260;20.822;2022-08-03T06:51:14;7.47;;;3.40;;
52776;SDS011;38656;54.260;20.822;2022-08-03T06:53:40;10.88;;;3.47;;
52776;SDS011;38656;54.260;20.822;2022-08-03T06:56:06;10.07;;;3.25;;
52776;SDS011;38656;54.260;20.822;2022-08-03T06:58:33;5.13;;;2.80;;
52776;SDS011;38656;54.260;20.822;2022-08-03T07:00:59;7.00;;;3.22;;
52776;SDS011;38656;54.260;20.822;2022-08-03T07:03:25;8.80;;;4.40;;
52776;SDS011;38656;54.260;20.822;2022-08-03T07:05:51;8.15;;;3.95;;
52776;SDS011;38656;54.260;20.822;2022-08-03T07:08:17;4.97;;;2.88;;
52776;SDS011;38656;54.260;20.822;2022-08-03T07:10:44;6.28;;;3.53;;
52776;SDS011;38656;54.260;20.822;2022-08-03T07:13:10;10.00;;;3.42;;
52776;SDS011;38656;54.260;20.822;2022-08-03T07:15:36;7.32;;;3.45;;
52776;SDS011;38656;54.260;20.822;2022-08-03T07:18:02;7.38;;;3.63;;
52776;SDS011;38656;54.260;20.822;2022-08-03T07:20:28;7.93;;;2.95;;
52776;SDS011;38656;54.260;20.822;2022-08-03T07:22:55;5.22;;;2.60;;
52776;SDS011;38656;54.260;20.822;2022-08-03T07:25:21;9.35;;;3.42;;
52776;SDS011;38656;54.260;20.822;2022-08-03T07:27:47;3.05;;;2.65;;
52776;SDS011;38656;54.260;20.822;2022-08-03T07:30:14;8.45;;;3.30;;
52776;SDS011;38656;54.260;20.822;2022-08-03T07:32:40;19.15;;;8.07;;
52776;SDS011;38656;54.260;20.822;2022-08-03T07:35:06;6.25;;;3.45;;
52776;SDS011;38656;54.260;20.822;2022-08-03T07:37:32;7.32;;;3.03;;
52776;SDS011;38656;54.260;20.822;2022-08-03T07:39:59;6.72;;;3.20;;
52776;SDS011;38656;54.260;20.822;2022-08-03T07:42:29;5.32;;;3.17;;
52776;SDS011;38656;54.260;20.822;2022-08-03T07:44:56;5.18;;;3.05;;
52776;SDS011;38656;54.260;20.822;2022-08-03T07:47:23;5.32;;;2.97;;
52776;SDS011;38656;54.260;20.822;2022-08-03T07:49:49;4.45;;;2.35;;
52776;SDS011;38656;54.260;20.822;2022-08-03T07:52:16;4.93;;;2.33;;
52776;SDS011;38656;54.260;20.822;2022-08-03T07:55:01;3.85;;;2.58;;
52776;SDS011;38656;54.260;20.822;2022-08-03T07:57:27;5.55;;;3.05;;
52776;SDS011;38656;54.260;20.822;2022-08-03T07:59:53;5.10;;;2.33;;
52776;SDS011;38656;54.260;20.822;2022-08-03T08:02:19;7.95;;;2.42;;
52776;SDS011;38656;54.260;20.822;2022-08-03T08:04:45;2.97;;;2.30;;
52776;SDS011;38656;54.260;20.822;2022-08-03T08:07:11;4.35;;;2.13;;
52776;SDS011;38656;54.260;20.822;2022-08-03T08:09:37;6.10;;;2.70;;
52776;SDS011;38656;54.260;20.822;2022-08-03T08:12:03;5.22;;;2.15;;
52776;SDS011;38656;54.260;20.822;2022-08-03T08:14:32;5.88;;;1.92;;
52776;SDS011;38656;54.260;20.822;2022-08-03T08:16:58;6.35;;;2.35;;
52776;SDS011;38656;54.260;20.822;2022-08-03T08:19:24;4.93;;;2.25;;
52776;SDS011;38656;54.260;20.822;2022-08-03T08:21:50;8.05;;;2.33;;
52776;SDS011;38656;54.260;20.822;2022-08-03T08:24:16;5.88;;;2.33;;
52776;SDS011;38656;54.260;20.822;2022-08-03T08:26:42;4.25;;;2.30;;
52776;SDS011;38656;54.260;20.822;2022-08-03T08:29:08;4.80;;;2.20;;
52776;SDS011;38656;54.260;20.822;2022-08-03T08:31:34;5.72;;;2.72;;
52776;SDS011;38656;54.260;20.822;2022-08-03T08:34:00;6.70;;;2.25;;
52776;SDS011;38656;54.260;20.822;2022-08-03T08:36:33;9.02;;;2.28;;
52776;SDS011;38656;54.260;20.822;2022-08-03T08:38:59;3.97;;;2.00;;
52776;SDS011;38656;54.260;20.822;2022-08-03T08:41:25;7.70;;;2.17;;
52776;SDS011;38656;54.260;20.822;2022-08-03T08:43:52;5.30;;;2.30;;
52776;SDS011;38656;54.260;20.822;2022-08-03T08:46:19;3.22;;;2.28;;
52776;SDS011;38656;54.260;20.822;2022-08-03T08:48:45;6.13;;;2.20;;
52776;SDS011;38656;54.260;20.822;2022-08-03T08:51:13;3.95;;;3.30;;
52776;SDS011;38656;54.260;20.822;2022-08-03T08:53:42;5.10;;;1.65;;
52776;SDS011;38656;54.260;20.822;2022-08-03T08:56:10;4.10;;;1.90;;
52776;SDS011;38656;54.260;20.822;2022-08-03T08:58:40;3.40;;;2.33;;
52776;SDS011;38656;54.260;20.822;2022-08-03T09:01:07;3.45;;;2.75;;
52776;SDS011;38656;54.260;20.822;2022-08-03T09:03:34;3.40;;;2.53;;
52776;SDS011;38656;54.260;20.822;2022-08-03T09:06:00;3.63;;;2.00;;
52776;SDS011;38656;54.260;20.822;2022-08-03T09:08:27;7.80;;;3.65;;
52776;SDS011;38656;54.260;20.822;2022-08-03T09:10:53;6.90;;;2.17;;
52776;SDS011;38656;54.260;20.822;2022-08-03T09:13:22;6.63;;;2.08;;
52776;SDS011;38656;54.260;20.822;2022-08-03T09:15:48;4.03;;;2.08;;
52776;SDS011;38656;54.260;20.822;2022-08-03T09:18:33;5.63;;;1.98;;
52776;SDS011;38656;54.260;20.822;2022-08-03T09:24:00;5.25;;;1.95;;
52776;SDS011;38656;54.260;20.822;2022-08-03T09:26:27;6.57;;;2.28;;
52776;SDS011;38656;54.260;20.822;2022-08-03T09:28:57;4.90;;;1.80;;
52776;SDS011;38656;54.260;20.822;2022-08-03T09:31:34;3.13;;;2.03;;
52776;SDS011;38656;54.260;20.822;2022-08-03T09:34:00;4.03;;;1.58;;
52776;SDS011;38656;54.260;20.822;2022-08-03T09:36:33;3.40;;;1.67;;
52776;SDS011;38656;54.260;20.822;2022-08-03T09:39:00;6.97;;;1.83;;
52776;SDS011;38656;54.260;20.822;2022-08-03T09:41:28;6.22;;;1.70;;
52776;SDS011;38656;54.260;20.822;2022-08-03T09:43:54;2.72;;;1.58;;
52776;SDS011;38656;54.260;20.822;2022-08-03T09:46:21;3.58;;;2.10;;
52776;SDS011;38656;54.260;20.822;2022-08-03T09:48:47;4.15;;;1.50;;
52776;SDS011;38656;54.260;20.822;2022-08-03T09:51:13;4.80;;;1.70;;
52776;SDS011;38656;54.260;20.822;2022-08-03T09:53:45;5.72;;;2.13;;
52776;SDS011;38656;54.260;20.822;2022-08-03T09:56:11;5.43;;;1.90;;
52776;SDS011;38656;54.260;20.822;2022-08-03T09:58:45;7.55;;;1.67;;
52776;SDS011;38656;54.260;20.822;2022-08-03T10:01:11;5.40;;;1.73;;
52776;SDS011;38656;54.260;20.822;2022-08-03T10:03:38;4.35;;;1.27;;
52776;SDS011;38656;54.260;20.822;2022-08-03T10:06:17;5.55;;;1.48;;
52776;SDS011;38656;54.260;20.822;2022-08-03T10:08:44;3.78;;;1.42;;
52776;SDS011;38656;54.260;20.822;2022-08-03T10:11:10;3.13;;;1.95;;
52776;SDS011;38656;54.260;20.822;2022-08-03T10:13:36;4.00;;;2.00;;
52776;SDS011;38656;54.260;20.822;2022-08-03T10:16:02;7.15;;;1.67;;
52776;SDS011;38656;54.260;20.822;2022-08-03T10:18:30;4.47;;;2.28;;
52776;SDS011;38656;54.260;20.822;2022-08-03T10:21:02;5.75;;;1.80;;
52776;SDS011;38656;54.260;20.822;2022-08-03T10:23:28;4.75;;;1.88;;
52776;SDS011;38656;54.260;20.822;2022-08-03T10:25:57;5.43;;;1.77;;
52776;SDS011;38656;54.260;20.822;2022-08-03T10:28:24;6.30;;;1.75;;
52776;SDS011;38656;54.260;20.822;2022-08-03T10:30:52;3.03;;;1.45;;
52776;SDS011;38656;54.260;20.822;2022-08-03T10:33:26;5.93;;;2.10;;
52776;SDS011;38656;54.260;20.822;2022-08-03T10:35:56;5.47;;;2.05;;
52776;SDS011;38656;54.260;20.822;2022-08-03T10:38:23;6.85;;;1.67;;
52776;SDS011;38656;54.260;20.822;2022-08-03T10:40:52;4.03;;;1.70;;
52776;SDS011;38656;54.260;20.822;2022-08-03T10:46:27;5.10;;;1.77;;
52776;SDS011;38656;54.260;20.822;2022-08-03T10:48:56;6.10;;;1.92;;
52776;SDS011;38656;54.260;20.822;2022-08-03T10:51:22;3.30;;;1.80;;
52776;SDS011;38656;54.260;20.822;2022-08-03T10:53:49;6.45;;;1.83;;
52776;SDS011;38656;54.260;20.822;2022-08-03T10:59:15;4.88;;;1.75;;
52776;SDS011;38656;54.260;20.822;2022-08-03T11:01:48;5.90;;;1.75;;
52776;SDS011;38656;54.260;20.822;2022-08-03T11:04:18;4.60;;;1.48;;
52776;SDS011;38656;54.260;20.822;2022-08-03T11:06:45;4.45;;;1.83;;
52776;SDS011;38656;54.260;20.822;2022-08-03T11:11:39;7.38;;;1.95;;
52776;SDS011;38656;54.260;20.822;2022-08-03T11:16:40;3.28;;;1.55;;
52776;SDS011;38656;54.260;20.822;2022-08-03T11:19:08;7.65;;;1.70;;
52776;SDS011;38656;54.260;20.822;2022-08-03T11:35:14;4.93;;;1.75;;
52776;SDS011;38656;54.260;20.822;2022-08-03T11:48:27;4.00;;;1.55;;
52776;SDS011;38656;54.260;20.822;2022-08-03T11:50:53;3.85;;;1.85;;
52776;SDS011;38656;54.260;20.822;2022-08-03T11:53:19;7.63;;;1.90;;
52776;SDS011;38656;54.260;20.822;2022-08-03T11:55:47;9.27;;;2.20;;
52776;SDS011;38656;54.260;20.822;2022-08-03T11:58:14;5.63;;;1.73;;
52776;SDS011;38656;54.260;20.822;2022-08-03T12:00:40;8.82;;;1.67;;
52776;SDS011;38656;54.260;20.822;2022-08-03T12:03:07;2.38;;;1.50;;
52776;SDS011;38656;54.260;20.822;2022-08-03T12:05:35;5.13;;;1.73;;
52776;SDS011;38656;54.260;20.822;2022-08-03T12:08:02;7.95;;;2.30;;
52776;SDS011;38656;54.260;20.822;2022-08-03T12:10:28;6.72;;;1.65;;
52776;SDS011;38656;54.260;20.822;2022-08-03T12:12:55;5.70;;;1.60;;
52776;SDS011;38656;54.260;20.822;2022-08-03T12:15:28;2.55;;;1.75;;
52776;SDS011;38656;54.260;20.822;2022-08-03T12:17:55;7.43;;;2.22;;
52776;SDS011;38656;54.260;20.822;2022-08-03T12:20:23;6.97;;;1.95;;
52776;SDS011;38656;54.260;20.822;2022-08-03T12:22:49;3.55;;;1.70;;
52776;SDS011;38656;54.260;20.822;2022-08-03T12:25:22;4.35;;;1.63;;
52776;SDS011;38656;54.260;20.822;2022-08-03T12:27:49;6.20;;;1.85;;
52776;SDS011;38656;54.260;20.822;2022-08-03T12:30:15;4.18;;;1.85;;
52776;SDS011;38656;54.260;20.822;2022-08-03T12:32:41;6.30;;;2.17;;
52776;SDS011;38656;54.260;20.822;2022-08-03T12:35:08;3.22;;;1.45;;
52776;SDS011;38656;54.260;20.822;2022-08-03T12:37:34;5.35;;;3.15;;
52776;SDS011;38656;54.260;20.822;2022-08-03T12:40:01;4.93;;;2.75;;
52776;SDS011;38656;54.260;20.822;2022-08-03T12:42:30;2.78;;;2.55;;
52776;SDS011;38656;54.260;20.822;2022-08-03T12:44:56;5.90;;;2.42;;
52776;SDS011;38656;54.260;20.822;2022-08-03T12:47:22;8.15;;;2.25;;
52776;SDS011;38656;54.260;20.822;2022-08-03T12:49:49;5.40;;;1.80;;
52776;SDS011;38656;54.260;20.822;2022-08-03T12:52:16;3.60;;;2.00;;
52776;SDS011;38656;54.260;20.822;2022-08-03T12:54:42;2.38;;;1.77;;
52776;SDS011;38656;54.260;20.822;2022-08-03T12:57:19;5.53;;;2.22;;
52776;SDS011;38656;54.260;20.822;2022-08-03T12:59:46;8.43;;;2.03;;
52776;SDS011;38656;54.260;20.822;2022-08-03T13:02:15;4.65;;;2.10;;
52776;SDS011;38656;54.260;20.822;2022-08-03T13:04:45;4.10;;;2.85;;
52776;SDS011;38656;54.260;20.822;2022-08-03T13:07:12;14.18;;;2.03;;
52776;SDS011;38656;54.260;20.822;2022-08-03T13:09:45;5.82;;;2.00;;
52776;SDS011;38656;54.260;20.822;2022-08-03T13:12:18;3.53;;;1.70;;
52776;SDS011;38656;54.260;20.822;2022-08-03T13:14:46;2.25;;;1.73;;
52776;SDS011;38656;54.260;20.822;2022-08-03T13:17:12;4.03;;;1.73;;
52776;SDS011;38656;54.260;20.822;2022-08-03T13:19:38;7.00;;;1.80;;
52776;SDS011;38656;54.260;20.822;2022-08-03T13:22:12;3.65;;;2.45;;
52776;SDS011;38656;54.260;20.822;2022-08-03T13:24:38;7.63;;;2.08;;
52776;SDS011;38656;54.260;20.822;2022-08-03T13:27:04;7.07;;;1.85;;
52776;SDS011;38656;54.260;20.822;2022-08-03T13:29:31;8.25;;;1.88;;
52776;SDS011;38656;54.260;20.822;2022-08-03T13:31:58;3.97;;;1.58;;
52776;SDS011;38656;54.260;20.822;2022-08-03T13:34:24;5.05;;;1.92;;
52776;SDS011;38656;54.260;20.822;2022-08-03T13:36:51;4.95;;;2.08;;
52776;SDS011;38656;54.260;20.822;2022-08-03T13:39:17;6.35;;;1.75;;
52776;SDS011;38656;54.260;20.822;2022-08-03T13:41:46;2.90;;;1.77;;
52776;SDS011;38656;54.260;20.822;2022-08-03T13:44:12;4.10;;;2.20;;
52776;SDS011;38656;54.260;20.822;2022-08-03T13:46:38;5.18;;;1.80;;
52776;SDS011;38656;54.260;20.822;2022-08-03T13:49:05;4.10;;;1.75;;
52776;SDS011;38656;54.260;20.822;2022-08-03T13:51:31;4.43;;;2.50;;
52776;SDS011;38656;54.260;20.822;2022-08-03T13:53:57;3.33;;;2.08;;
52776;SDS011;38656;54.260;20.822;2022-08-03T13:56:27;5.18;;;1.92;;
52776;SDS011;38656;54.260;20.822;2022-08-03T13:58:53;5.25;;;1.95;;
52776;SDS011;38656;54.260;20.822;2022-08-03T14:01:19;7.53;;;2.10;;
52776;SDS011;38656;54.260;20.822;2022-08-03T14:03:45;6.15;;;2.17;;
52776;SDS011;38656;54.260;20.822;2022-08-03T14:06:14;4.78;;;1.90;;
52776;SDS011;38656;54.260;20.822;2022-08-03T14:08:40;3.70;;;1.83;;
52776;SDS011;38656;54.260;20.822;2022-08-03T14:11:06;4.18;;;2.08;;
52776;SDS011;38656;54.260;20.822;2022-08-03T14:13:32;4.50;;;1.77;;
52776;SDS011;38656;54.260;20.822;2022-08-03T14:15:58;5.65;;;2.05;;
52776;SDS011;38656;54.260;20.822;2022-08-03T14:18:24;3.63;;;1.95;;
52776;SDS011;38656;54.260;20.822;2022-08-03T14:20:51;5.85;;;1.92;;
52776;SDS011;38656;54.260;20.822;2022-08-03T14:23:17;3.30;;;1.80;;
52776;SDS011;38656;54.260;20.822;2022-08-03T14:25:43;4.85;;;1.85;;
52776;SDS011;38656;54.260;20.822;2022-08-03T14:28:09;4.18;;;1.77;;
52776;SDS011;38656;54.260;20.822;2022-08-03T14:30:35;6.03;;;2.72;;
52776;SDS011;38656;54.260;20.822;2022-08-03T14:33:02;4.32;;;2.55;;
52776;SDS011;38656;54.260;20.822;2022-08-03T14:35:28;4.18;;;2.10;;
52776;SDS011;38656;54.260;20.822;2022-08-03T14:37:54;1.88;;;1.60;;
52776;SDS011;38656;54.260;20.822;2022-08-03T14:40:20;3.67;;;3.10;;
52776;SDS011;38656;54.260;20.822;2022-08-03T14:45:38;6.15;;;1.90;;
52776;SDS011;38656;54.260;20.822;2022-08-03T14:50:30;16.77;;;2.28;;
52776;SDS011;38656;54.260;20.822;2022-08-03T14:52:56;3.63;;;2.08;;
52776;SDS011;38656;54.260;20.822;2022-08-03T14:55:22;11.80;;;2.25;;
52776;SDS011;38656;54.260;20.822;2022-08-03T14:57:49;4.05;;;2.58;;
52776;SDS011;38656;54.260;20.822;2022-08-03T15:00:15;4.70;;;2.00;;
52776;SDS011;38656;54.260;20.822;2022-08-03T15:02:41;4.10;;;1.98;;
52776;SDS011;38656;54.260;20.822;2022-08-03T15:05:07;1.55;;;1.40;;
52776;SDS011;38656;54.260;20.822;2022-08-03T15:07:36;2.72;;;2.30;;
52776;SDS011;38656;54.260;20.822;2022-08-03T15:10:02;5.15;;;2.25;;
52776;SDS011;38656;54.260;20.822;2022-08-03T15:12:29;3.22;;;1.90;;
52776;SDS011;38656;54.260;20.822;2022-08-03T15:14:56;5.63;;;1.85;;
52776;SDS011;38656;54.260;20.822;2022-08-03T15:17:22;7.22;;;2.05;;
52776;SDS011;38656;54.260;20.822;2022-08-03T15:19:48;5.47;;;2.00;;
52776;SDS011;38656;54.260;20.822;2022-08-03T15:22:14;3.58;;;2.20;;
52776;SDS011;38656;54.260;20.822;2022-08-03T15:24:41;3.10;;;1.70;;
52776;SDS011;38656;54.260;20.822;2022-08-03T15:27:07;4.35;;;2.00;;
52776;SDS011;38656;54.260;20.822;2022-08-03T15:29:33;6.80;;;2.08;;
52776;SDS011;38656;54.260;20.822;2022-08-03T15:31:59;2.95;;;2.00;;
52776;SDS011;38656;54.260;20.822;2022-08-03T15:34:25;6.60;;;1.95;;